Time;durP1;ratioP1;P1;durP2;ratioP2;P2;SDS_P1;SDS_P2;PMS_P1;PMS_P2;Temp;Humidity;BMP_temperature;BMP_pressure;BME280_temperature;BME280_humidity;BME280_pressure;Samples;Min_cycle;Max_cycle;Signal;HPM_P1;HPM_P2
2022/04/26 03:37:32;;;;;;;18.83;8.90;;;6.30;99.90;;;;;;5069692;28;20044;-79
2022/04/26 03:39:58;;;;;;;20.75;9.00;;;6.30;99.90;;;;;;5066349;28;20049;-79
2022/04/26 03:42:24;;;;;;;18.13;9.55;;;7.10;99.90;;;;;;5046799;28;20038;-79
2022/04/26 03:44:49;;;;;;;20.17;9.48;;;6.30;99.90;;;;;;5070746;28;20218;-79
2022/04/26 03:47:15;;;;;;;19.70;9.65;;;6.90;99.90;;;;;;5035107;28;20043;-79
2022/04/26 03:49:41;;;;;;;20.90;8.88;;;6.20;99.90;;;;;;5063896;28;20032;-79
2022/04/26 03:52:07;;;;;;;17.88;9.07;;;6.20;99.90;;;;;;5034448;28;20040;-79
2022/04/26 03:54:34;;;;;;;16.35;8.93;;;6.20;99.90;;;;;;5065773;28;20492;-79
2022/04/26 03:57:00;;;;;;;19.67;9.32;;;6.60;99.90;;;;;;5066565;28;20119;-79
2022/04/26 03:59:25;;;;;;;21.50;9.90;;;6.10;99.90;;;;;;5040970;28;20125;-79
2022/04/26 04:01:51;;;;;;;18.88;8.80;;;6.30;99.90;;;;;;5059014;28;20049;-79
2022/04/26 04:04:17;;;;;;;20.92;9.23;;;6.60;99.90;;;;;;5047977;28;20059;-79
2022/04/26 04:06:42;;;;;;;21.30;9.73;;;6.90;99.90;;;;;;5047635;28;20123;-80
2022/04/26 04:09:08;;;;;;;22.17;8.75;;;6.10;99.90;;;;;;5075709;28;20032;-79
2022/04/26 04:11:34;;;;;;;17.83;8.23;;;6.10;99.90;;;;;;5074324;28;20111;-79
2022/04/26 04:13:59;;;;;;;19.60;7.53;;;6.30;99.90;;;;;;5064780;28;20064;-79
2022/04/26 04:16:25;;;;;;;16.75;7.00;;;6.10;99.90;;;;;;5062941;28;20259;-79
2022/04/26 04:21:35;;;;;;;14.32;6.10;;;6.20;99.90;;;;;;5050904;28;20131;-79
2022/04/26 04:24:01;;;;;;;15.82;6.35;;;6.20;99.90;;;;;;5064582;28;20120;-79
2022/04/26 04:26:26;;;;;;;15.00;6.03;;;6.20;99.90;;;;;;5043696;28;20036;-79
2022/04/26 04:28:52;;;;;;;16.40;6.47;;;6.20;99.90;;;;;;5071208;28;20040;-79
2022/04/26 04:31:18;;;;;;;15.45;6.03;;;6.30;99.90;;;;;;5066863;28;20114;-79
2022/04/26 04:33:44;;;;;;;15.82;5.95;;;6.30;99.90;;;;;;5069896;28;20040;-79
2022/04/26 04:36:10;;;;;;;17.35;6.05;;;6.30;99.90;;;;;;5056980;28;20066;-79
2022/04/26 04:38:36;;;;;;;14.27;5.75;;;6.40;99.90;;;;;;5067695;28;20419;-79
2022/04/26 04:41:02;;;;;;;14.30;5.63;;;6.60;99.90;;;;;;5041286;28;20036;-80
2022/04/26 04:43:27;;;;;;;16.67;5.65;;;6.30;99.90;;;;;;5044424;28;20029;-79
2022/04/26 04:45:54;;;;;;;16.50;5.93;;;6.30;99.90;;;;;;5078540;28;20470;-79
2022/04/26 04:48:19;;;;;;;18.17;6.00;;;6.30;99.90;;;;;;5051902;28;20132;-79
2022/04/26 04:50:45;;;;;;;14.20;5.43;;;6.30;99.90;;;;;;5063256;28;20115;-79
2022/04/26 04:53:11;;;;;;;16.58;5.82;;;6.30;99.90;;;;;;5050752;28;20036;-79
2022/04/26 04:55:41;;;;;;;15.40;5.72;;;6.30;99.90;;;;;;5070214;28;20043;-79
2022/04/26 04:58:07;;;;;;;15.68;5.57;;;6.40;99.90;;;;;;5059070;28;20044;-79
2022/04/26 05:00:33;;;;;;;13.90;5.65;;;6.40;99.90;;;;;;5064184;28;20044;-79
2022/04/26 05:02:59;;;;;;;14.27;5.53;;;5.70;99.90;;;;;;5060181;28;20056;-79
2022/04/26 05:05:25;;;;;;;16.98;6.22;;;6.50;99.90;;;;;;5059533;28;20098;-79
2022/04/26 05:07:52;;;;;;;16.85;5.95;;;7.40;99.90;;;;;;5064025;28;20040;-79
2022/04/26 05:10:18;;;;;;;15.13;5.47;;;6.60;99.90;;;;;;5057649;28;20033;-79
2022/04/26 05:12:44;;;;;;;15.40;5.88;;;7.90;99.90;;;;;;5053980;28;20457;-80
2022/04/26 05:15:10;;;;;;;12.60;5.75;;;6.70;99.90;;;;;;5061475;28;20131;-79
2022/04/26 05:17:36;;;;;;;18.60;5.93;;;6.80;99.90;;;;;;5065947;28;20122;-79
2022/04/26 05:20:02;;;;;;;15.70;5.70;;;6.80;99.90;;;;;;5060645;28;20089;-79
2022/04/26 05:22:28;;;;;;;17.27;5.07;;;6.80;99.90;;;;;;5072254;28;20075;-79
2022/04/26 05:24:54;;;;;;;15.30;5.35;;;6.90;99.90;;;;;;5037101;28;20483;-80
2022/04/26 05:27:34;;;;;;;18.00;5.10;;;6.90;99.90;;;;;;5052274;28;20121;-79
2022/04/26 05:30:00;;;;;;;14.32;5.10;;;6.90;99.90;;;;;;5070517;28;20493;-79
2022/04/26 05:32:27;;;;;;;15.15;5.25;;;7.10;99.90;;;;;;5049716;28;20400;-79
2022/04/26 05:34:58;;;;;;;12.38;4.80;;;7.00;99.90;;;;;;5063776;28;20115;-79
2022/04/26 05:37:29;;;;;;;15.68;4.88;;;7.10;99.90;;;;;;5078202;28;20036;-79
2022/04/26 05:39:55;;;;;;;14.13;5.05;;;7.20;99.90;;;;;;5066456;28;20047;-79
2022/04/26 05:42:21;;;;;;;15.85;5.20;;;7.30;99.90;;;;;;5070904;28;20114;-80
2022/04/26 05:44:47;;;;;;;13.40;4.80;;;7.40;99.90;;;;;;5088553;28;20119;-79
2022/04/26 05:47:13;;;;;;;15.40;5.20;;;7.50;99.90;;;;;;5070892;28;20404;-79
2022/04/26 05:49:39;;;;;;;13.35;4.97;;;7.60;99.90;;;;;;5071639;28;20038;-79
2022/04/26 05:52:05;;;;;;;19.10;5.53;;;7.70;99.90;;;;;;5081527;28;20082;-80
2022/04/26 05:54:31;;;;;;;15.02;5.20;;;7.80;99.90;;;;;;5054686;28;20037;-79
2022/04/26 05:56:57;;;;;;;12.82;4.63;;;7.90;99.90;;;;;;5087278;28;20043;-79
2022/04/26 05:59:23;;;;;;;16.38;5.10;;;8.10;99.90;;;;;;5075139;28;20044;-80
2022/04/26 06:01:50;;;;;;;14.13;5.40;;;8.20;99.90;;;;;;5035244;28;20447;-80
2022/04/26 06:04:16;;;;;;;13.30;4.47;;;8.30;99.90;;;;;;5059845;28;20397;-79
2022/04/26 06:06:42;;;;;;;12.65;4.68;;;8.40;99.90;;;;;;5063190;28;20057;-80
2022/04/26 06:09:07;;;;;;;17.83;4.85;;;8.50;99.90;;;;;;5072240;28;20170;-81
2022/04/26 06:11:33;;;;;;;11.52;4.90;;;8.50;99.90;;;;;;5064706;28;20547;-81
2022/04/26 06:14:01;;;;;;;16.23;4.97;;;8.50;99.90;;;;;;5060812;28;20435;-81
2022/04/26 06:16:28;;;;;;;15.48;5.10;;;8.50;99.90;;;;;;5052211;28;20124;-81
2022/04/26 06:18:54;;;;;;;13.07;4.50;;;8.50;99.90;;;;;;5071017;28;20457;-81
2022/04/26 06:21:20;;;;;;;12.25;4.40;;;9.70;99.90;;;;;;5057387;28;20040;-81
2022/04/26 06:23:46;;;;;;;14.45;4.30;;;8.60;99.90;;;;;;5079249;28;20063;-81
2022/04/26 06:26:12;;;;;;;17.90;4.30;;;8.80;99.90;;;;;;5037552;28;20052;-82
2022/04/26 06:28:38;;;;;;;11.75;4.28;;;8.90;99.90;;;;;;5069548;28;20105;-82
2022/04/26 06:31:03;;;;;;;12.23;4.20;;;9.00;99.90;;;;;;5074386;28;20040;-80
2022/04/26 06:33:29;;;;;;;12.45;4.05;;;9.00;99.90;;;;;;5055241;28;20044;-81
2022/04/26 06:35:55;;;;;;;9.60;3.63;;;9.00;99.90;;;;;;5055487;28;20115;-82
2022/04/26 06:38:23;;;;;;;12.88;3.97;;;9.00;99.90;;;;;;5059510;28;20047;-81
2022/04/26 06:40:51;;;;;;;15.50;5.15;;;9.00;99.90;;;;;;5077277;28;20035;-81
2022/04/26 06:43:18;;;;;;;11.90;3.67;;;9.10;99.90;;;;;;5076386;28;20461;-81
2022/04/26 06:45:44;;;;;;;11.70;3.42;;;9.20;99.90;;;;;;5068103;28;20068;-81
2022/04/26 06:48:10;;;;;;;13.15;3.53;;;9.30;99.90;;;;;;5061045;28;20132;-82
2022/04/26 06:50:37;;;;;;;15.68;3.80;;;9.40;99.90;;;;;;5071917;28;20453;-81
2022/04/26 06:53:04;;;;;;;12.23;3.33;;;9.40;99.90;;;;;;5070240;28;20037;-81
2022/04/26 06:55:30;;;;;;;11.00;3.15;;;9.40;99.90;;;;;;5070024;28;20481;-81
2022/04/26 06:57:56;;;;;;;13.18;3.90;;;9.30;99.90;;;;;;5064871;28;20085;-82
2022/04/26 07:00:22;;;;;;;13.02;3.20;;;9.40;99.90;;;;;;5053492;28;20044;-81
2022/04/26 07:02:47;;;;;;;11.40;3.03;;;9.50;99.90;;;;;;5082378;28;20040;-81
2022/04/26 07:05:15;;;;;;;9.88;3.10;;;9.80;99.90;;;;;;5058997;28;20051;-80
2022/04/26 07:07:41;;;;;;;13.50;3.25;;;9.80;99.90;;;;;;5084845;28;20043;-82
2022/04/26 07:10:07;;;;;;;8.65;3.00;;;10.00;99.90;;;;;;5067234;28;20040;-80
2022/04/26 07:12:34;;;;;;;13.65;3.30;;;10.10;99.90;;;;;;5053662;28;20036;-80
2022/04/26 07:14:59;;;;;;;9.25;3.30;;;10.20;99.90;;;;;;5053240;28;20040;-81
2022/04/26 07:17:25;;;;;;;10.15;3.00;;;10.50;99.90;;;;;;5070330;28;20118;-81
2022/04/26 07:19:51;;;;;;;9.85;3.00;;;10.50;99.90;;;;;;5050507;28;20075;-81
2022/04/26 07:22:17;;;;;;;13.65;3.05;;;10.40;99.90;;;;;;5053842;28;20067;-81
2022/04/26 07:24:43;;;;;;;12.82;3.40;;;10.60;99.90;;;;;;5056718;28;20532;-81
2022/04/26 07:27:10;;;;;;;14.13;3.30;;;10.20;99.90;;;;;;5088836;28;20079;-81
2022/04/26 07:29:41;;;;;;;11.93;3.30;;;10.10;99.90;;;;;;5064032;28;20039;-81
2022/04/26 07:32:07;;;;;;;11.05;3.20;;;10.00;99.90;;;;;;5086977;28;20055;-81
2022/04/26 07:34:33;;;;;;;11.95;3.38;;;9.90;99.90;;;;;;5088700;28;20047;-81
2022/04/26 07:37:02;;;;;;;10.68;2.90;;;10.10;99.90;;;;;;5057056;28;20036;-82
2022/04/26 07:39:27;;;;;;;11.13;3.00;;;10.20;99.90;;;;;;5073646;28;20435;-81
2022/04/26 07:41:54;;;;;;;10.52;2.67;;;10.50;99.90;;;;;;5072237;28;20039;-81
2022/04/26 07:44:20;;;;;;;10.48;3.10;;;10.50;99.90;;;;;;5073366;28;20512;-81
2022/04/26 07:46:48;;;;;;;10.23;3.25;;;10.60;99.90;;;;;;5065435;28;20455;-81
2022/04/26 07:49:16;;;;;;;10.63;3.00;;;10.10;99.90;;;;;;5072466;28;20093;-82
2022/04/26 07:51:42;;;;;;;9.20;2.90;;;10.20;99.90;;;;;;5067622;28;20484;-81
2022/04/26 07:54:11;;;;;;;8.13;2.72;;;10.10;99.90;;;;;;5065312;28;20128;-81
2022/04/26 07:56:37;;;;;;;12.35;2.97;;;10.20;99.90;;;;;;5083820;28;20040;-81
2022/04/26 07:59:04;;;;;;;10.10;2.70;;;10.50;99.90;;;;;;5064689;28;20040;-81
2022/04/26 08:01:33;;;;;;;8.60;2.50;;;10.60;99.90;;;;;;5054189;28;20154;-81
2022/04/26 08:03:59;;;;;;;10.13;3.00;;;10.70;99.90;;;;;;5083498;28;20523;-82
2022/04/26 08:06:25;;;;;;;12.30;3.00;;;10.80;99.90;;;;;;5060216;28;20501;-81
2022/04/26 08:08:51;;;;;;;10.75;3.13;;;10.90;99.90;;;;;;5070761;28;20089;-82
2022/04/26 08:11:17;;;;;;;9.15;2.88;;;11.10;99.90;;;;;;5067234;28;20044;-81
2022/04/26 08:13:43;;;;;;;10.82;3.70;;;11.10;99.90;;;;;;5068779;28;20071;-81
2022/04/26 08:16:10;;;;;;;11.40;2.80;;;11.00;99.90;;;;;;5054443;28;20485;-81
2022/04/26 08:18:36;;;;;;;13.00;3.20;;;11.30;99.90;;;;;;5066208;28;20289;-80
2022/04/26 08:21:02;;;;;;;10.50;2.60;;;11.20;99.90;;;;;;5080089;28;20044;-80
2022/04/26 08:23:28;;;;;;;10.70;2.97;;;11.10;99.90;;;;;;5061380;28;20044;-81
2022/04/26 08:28:38;;;;;;;11.18;2.95;;;10.90;99.90;;;;;;5073384;28;20072;-80
2022/04/26 08:31:07;;;;;;;10.98;3.25;;;11.80;99.90;;;;;;5047169;28;20072;-81
2022/04/26 08:33:35;;;;;;;9.88;2.85;;;11.30;99.90;;;;;;5062122;28;20097;-81
2022/04/26 08:36:01;;;;;;;12.13;3.10;;;11.50;99.90;;;;;;5070750;28;20111;-82
2022/04/26 08:38:27;;;;;;;12.38;3.47;;;11.50;99.90;;;;;;5053708;28;20108;-81
2022/04/26 08:40:52;;;;;;;11.02;3.20;;;12.00;99.90;;;;;;5047232;28;20086;-80
2022/04/26 08:43:18;;;;;;;10.77;2.83;;;11.60;99.90;;;;;;5063619;28;20507;-81
2022/04/26 08:45:46;;;;;;;12.60;3.25;;;11.70;99.90;;;;;;5065278;28;20071;-81
2022/04/26 08:51:00;;;;;;;8.70;2.80;;;11.70;99.90;;;;;;5074346;28;20512;-80
2022/04/26 08:53:27;;;;;;;10.00;2.72;;;11.40;99.90;;;;;;5088761;28;20558;-80
2022/04/26 08:56:06;;;;;;;13.77;3.10;;;11.40;99.90;;;;;;5061887;28;20028;-81
2022/04/26 08:58:33;;;;;;;12.50;3.08;;;11.30;99.90;;;;;;5061182;28;20036;-80
2022/04/26 09:01:10;;;;;;;9.98;2.97;;;11.40;99.90;;;;;;5069906;28;20040;-80
2022/04/26 09:03:56;;;;;;;11.60;3.28;;;11.70;99.90;;;;;;5087993;28;20439;-81
2022/04/26 09:06:43;;;;;;;9.05;2.95;;;11.80;99.90;;;;;;5070868;28;20040;-81
2022/04/26 09:09:14;;;;;;;10.20;2.92;;;11.90;99.90;;;;;;5087664;28;20515;-81
2022/04/26 09:11:41;;;;;;;10.85;2.80;;;12.00;99.90;;;;;;5068495;28;20047;-80
2022/04/26 09:14:29;;;;;;;10.48;3.30;;;11.90;99.90;;;;;;5055513;28;20047;-81
2022/04/26 09:17:12;;;;;;;9.43;2.60;;;12.10;99.90;;;;;;5061679;28;20462;-82
2022/04/26 09:19:49;;;;;;;10.07;2.70;;;12.30;99.90;;;;;;5060813;28;20345;-81
2022/04/26 09:22:26;;;;;;;9.40;2.58;;;12.60;99.90;;;;;;5073185;28;20052;-81
2022/04/26 09:24:56;;;;;;;10.13;2.83;;;12.70;99.90;;;;;;5072130;28;20079;-81
2022/04/26 09:27:22;;;;;;;7.47;2.70;;;12.60;99.90;;;;;;5065294;28;20117;-81
2022/04/26 09:29:47;;;;;;;9.13;2.70;;;12.30;99.90;;;;;;5047699;28;20143;-80
2022/04/26 09:32:13;;;;;;;11.23;3.13;;;12.00;99.90;;;;;;5074851;28;20123;-80
2022/04/26 09:34:39;;;;;;;9.57;2.67;;;11.90;99.90;;;;;;5069792;28;20068;-81
2022/04/26 09:37:05;;;;;;;10.23;3.03;;;12.00;99.90;;;;;;5064375;28;20047;-81
2022/04/26 09:39:31;;;;;;;9.43;3.10;;;12.20;99.90;;;;;;5070161;28;20195;-81
2022/04/26 09:41:58;;;;;;;9.18;2.65;;;12.40;99.90;;;;;;5073584;28;20135;-80
2022/04/26 09:44:34;;;;;;;9.82;2.75;;;12.50;99.90;;;;;;5065333;28;20036;-81
2022/04/26 09:47:00;;;;;;;10.20;2.90;;;12.30;99.90;;;;;;5070456;28;20040;-81
2022/04/26 09:49:34;;;;;;;6.97;2.55;;;12.30;99.90;;;;;;5055894;28;20368;-81
2022/04/26 09:51:59;;;;;;;9.25;2.90;;;12.20;99.90;;;;;;5075289;28;20085;-82
2022/04/26 09:54:26;;;;;;;8.75;2.88;;;12.30;99.90;;;;;;5025979;28;20040;-81
2022/04/26 09:56:53;;;;;;;9.77;2.60;;;12.40;99.90;;;;;;5041601;28;20588;-81
2022/04/26 09:59:38;;;;;;;8.63;2.63;;;12.70;99.90;;;;;;5103347;28;20048;-82
2022/04/26 10:02:07;;;;;;;8.52;2.67;;;12.90;99.90;;;;;;5088007;28;20036;-82
2022/04/26 10:04:37;;;;;;;11.40;2.90;;;13.00;99.90;;;;;;5080416;28;20531;-82
2022/04/26 10:07:06;;;;;;;9.25;3.10;;;13.10;99.90;;;;;;5074455;28;20144;-81
2022/04/26 10:09:33;;;;;;;10.50;3.03;;;13.10;99.90;;;;;;5073330;28;20482;-82
2022/04/26 10:12:01;;;;;;;8.55;2.90;;;12.90;99.90;;;;;;5075974;28;20221;-82
2022/04/26 10:14:32;;;;;;;8.88;3.05;;;12.70;99.90;;;;;;5067463;28;20056;-82
2022/04/26 10:16:59;;;;;;;7.85;2.83;;;12.60;99.90;;;;;;5054182;28;20032;-81
2022/04/26 10:19:43;;;;;;;11.40;2.97;;;12.60;99.90;;;;;;5072350;28;20036;-81
2022/04/26 10:22:10;;;;;;;9.48;3.00;;;12.60;99.90;;;;;;5054915;28;20032;-81
2022/04/26 10:24:36;;;;;;;10.80;3.00;;;12.60;99.90;;;;;;5074623;28;20051;-81
2022/04/26 10:27:25;;;;;;;10.00;3.50;;;12.40;99.90;;;;;;5055044;28;20146;-81
2022/04/26 10:29:52;;;;;;;9.80;3.30;;;12.10;99.90;;;;;;5081584;28;20036;-82
2022/04/26 10:32:38;;;;;;;12.65;3.22;;;12.10;99.90;;;;;;5073118;28;20575;-81
2022/04/26 10:35:23;;;;;;;10.90;3.10;;;11.90;99.90;;;;;;5052569;28;20411;-81
2022/04/26 10:38:12;;;;;;;11.18;3.22;;;12.10;99.90;;;;;;5091973;28;20373;-81
2022/04/26 10:41:04;;;;;;;9.90;3.30;;;12.10;99.90;;;;;;5073645;28;20058;-81
2022/04/26 10:43:29;;;;;;;10.35;3.00;;;12.30;99.90;;;;;;5071129;28;20698;-81
2022/04/26 10:46:12;;;;;;;10.52;3.10;;;12.70;99.90;;;;;;5071111;28;20272;-81
2022/04/26 10:48:38;;;;;;;10.38;3.40;;;12.90;99.90;;;;;;5071772;28;20040;-81
2022/04/26 10:51:35;;;;;;;9.32;3.20;;;13.00;99.90;;;;;;5063192;28;20526;-81
2022/04/26 10:54:02;;;;;;;9.70;2.90;;;12.70;99.90;;;;;;5077380;28;20036;-81
2022/04/26 10:56:29;;;;;;;9.90;3.35;;;12.50;99.90;;;;;;5053888;28;20546;-81
2022/04/26 10:58:55;;;;;;;10.65;3.22;;;12.50;99.90;;;;;;5068036;28;20040;-81
2022/04/26 11:01:25;;;;;;;9.38;3.00;;;12.60;99.90;;;;;;5067292;28;20700;-81
2022/04/26 11:03:55;;;;;;;8.65;3.40;;;12.50;99.90;;;;;;5069987;28;20048;-81
2022/04/26 11:06:39;;;;;;;10.32;3.25;;;12.40;99.90;;;;;;5073005;28;20048;-81
2022/04/26 11:09:10;;;;;;;12.32;3.30;;;12.50;99.90;;;;;;5062333;28;20406;-81
2022/04/26 11:11:53;;;;;;;8.55;3.15;;;12.80;99.90;;;;;;5090682;28;20416;-81
2022/04/26 11:14:20;;;;;;;9.02;2.90;;;13.20;99.90;;;;;;5080144;28;20590;-81
2022/04/26 11:17:00;;;;;;;9.07;3.13;;;13.30;99.90;;;;;;5070194;28;20036;-81
2022/04/26 11:19:36;;;;;;;9.45;2.90;;;13.60;99.90;;;;;;5081196;28;20040;-81
2022/04/26 11:22:08;;;;;;;10.63;3.03;;;13.60;99.90;;;;;;5086035;28;20047;-81
2022/04/26 11:30:07;;;;;;;10.75;3.25;;;13.10;99.90;;;;;;5076772;28;20040;-81
2022/04/26 11:32:43;;;;;;;8.13;2.85;;;13.30;99.90;;;;;;5072079;28;20044;-82
2022/04/26 11:35:17;;;;;;;9.23;2.80;;;13.30;99.90;;;;;;5089904;28;20081;-82
2022/04/26 11:37:53;;;;;;;7.20;2.38;;;13.20;99.90;;;;;;5079717;28;20072;-81
2022/04/26 11:40:21;;;;;;;9.10;2.53;;;13.10;99.90;;;;;;5087564;28;20048;-81
2022/04/26 11:42:47;;;;;;;11.10;2.83;;;13.20;99.90;;;;;;5083590;28;20047;-81
2022/04/26 11:45:13;;;;;;;9.25;2.95;;;13.30;99.90;;;;;;5037457;28;20405;-81
2022/04/26 11:47:49;;;;;;;7.47;2.53;;;13.50;99.90;;;;;;5066164;28;20040;-81
2022/04/26 11:50:26;;;;;;;12.07;2.92;;;13.80;99.90;;;;;;5068160;28;20040;-82
2022/04/26 11:52:58;;;;;;;8.02;2.58;;;13.60;99.90;;;;;;5075906;28;20037;-81
2022/04/26 11:55:30;;;;;;;8.90;2.87;;;13.40;99.90;;;;;;5053989;28;20048;-82
2022/04/26 11:58:15;;;;;;;9.20;2.95;;;13.80;99.90;;;;;;5089671;28;20287;-81
2022/04/26 12:00:49;;;;;;;8.55;2.60;;;14.10;99.90;;;;;;5081048;28;20067;-81
2022/04/26 12:03:16;;;;;;;7.15;2.60;;;14.10;99.90;;;;;;5071782;28;20078;-81
2022/04/26 12:05:43;;;;;;;8.63;2.90;;;14.00;99.90;;;;;;5081006;28;20449;-82
2022/04/26 12:08:11;;;;;;;7.70;2.70;;;14.10;99.90;;;;;;5064958;28;20107;-82
2022/04/26 12:10:37;;;;;;;9.75;2.80;;;14.20;99.90;;;;;;5036400;28;20043;-81
2022/04/26 12:13:05;;;;;;;8.75;2.45;;;14.40;99.90;;;;;;5070757;28;20115;-82
2022/04/26 12:15:34;;;;;;;9.02;2.50;;;14.50;99.90;;;;;;5063443;28;20473;-81
2022/04/26 12:18:08;;;;;;;7.85;2.70;;;14.70;99.90;;;;;;5056001;28;20050;-82
2022/04/26 12:20:36;;;;;;;7.45;2.40;;;14.60;99.90;;;;;;5072332;28;20115;-82
2022/04/26 12:23:06;;;;;;;8.40;2.38;;;14.70;99.90;;;;;;5089120;28;20263;-81
2022/04/26 12:25:35;;;;;;;9.30;2.60;;;14.80;99.90;;;;;;5063285;28;20462;-81
2022/04/26 12:28:06;;;;;;;8.45;2.65;;;14.80;99.90;;;;;;5056234;28;20082;-82
2022/04/26 12:30:33;;;;;;;11.77;2.40;;;14.90;99.90;;;;;;5054727;28;20036;-81
2022/04/26 12:32:59;;;;;;;6.97;2.42;;;14.60;99.90;;;;;;5079161;28;20392;-82
2022/04/26 12:35:26;;;;;;;9.90;2.60;;;14.10;99.90;;;;;;5049545;28;20115;-82
2022/04/26 12:38:06;;;;;;;8.93;2.80;;;13.80;99.90;;;;;;5069093;28;20036;-82
2022/04/26 12:40:32;;;;;;;9.00;2.88;;;13.60;99.90;;;;;;5072316;28;20089;-82
2022/04/26 12:42:58;;;;;;;7.35;2.30;;;13.60;99.90;;;;;;5087087;28;20051;-82
2022/04/26 12:45:25;;;;;;;7.40;2.40;;;13.70;99.90;;;;;;5066782;28;20041;-81
2022/04/26 12:51:11;;;;;;;9.60;2.70;;;13.60;99.90;;;;;;5073685;28;20044;-81
2022/04/26 12:53:38;;;;;;;9.95;2.70;;;14.00;99.90;;;;;;5062036;28;20044;-83
2022/04/26 12:56:09;;;;;;;9.77;2.58;;;14.40;99.90;;;;;;5054743;28;20039;-82
2022/04/26 12:58:38;;;;;;;8.85;2.33;;;14.20;99.90;;;;;;5052283;28;20059;-82
2022/04/26 13:01:05;;;;;;;7.70;2.50;;;14.00;99.90;;;;;;5068664;28;20075;-82
2022/04/26 13:03:31;;;;;;;9.90;2.60;;;14.10;99.90;;;;;;5071493;28;20133;-81
2022/04/26 13:06:14;;;;;;;12.02;3.05;;;14.20;99.90;;;;;;5051114;28;20529;-81
2022/04/26 13:08:42;;;;;;;8.48;2.72;;;14.50;99.90;;;;;;5078387;28;20040;-81
2022/04/26 13:11:08;;;;;;;9.05;2.97;;;14.50;99.90;;;;;;5088635;28;20040;-82
2022/04/26 13:13:36;;;;;;;9.93;2.92;;;14.60;99.90;;;;;;5068313;28;20396;-82
2022/04/26 13:16:02;;;;;;;9.57;2.65;;;14.60;99.90;;;;;;5071950;28;20182;-82
2022/04/26 13:18:28;;;;;;;11.07;2.80;;;14.80;99.90;;;;;;5070951;28;20142;-82
2022/04/26 13:20:56;;;;;;;8.88;2.65;;;14.60;99.90;;;;;;5067337;28;20044;-81
2022/04/26 13:23:22;;;;;;;10.85;2.78;;;14.90;99.90;;;;;;5077823;28;20054;-82
2022/04/26 13:25:48;;;;;;;7.97;2.50;;;14.80;99.90;;;;;;5088120;28;20070;-82
2022/04/26 13:28:14;;;;;;;8.05;2.58;;;14.80;99.90;;;;;;5088264;28;20040;-81
2022/04/26 13:30:41;;;;;;;9.95;2.75;;;15.00;99.90;;;;;;5063757;28;20036;-81
2022/04/26 13:33:07;;;;;;;9.07;2.90;;;14.70;99.90;;;;;;5071725;28;20040;-80
2022/04/26 13:35:33;;;;;;;10.18;2.60;;;14.80;99.90;;;;;;5053142;28;20062;-81
2022/04/26 13:37:59;;;;;;;9.82;2.80;;;14.50;99.90;;;;;;5051944;28;20032;-81
2022/04/26 13:40:26;;;;;;;10.13;2.60;;;14.60;99.90;;;;;;5065228;28;20121;-81
2022/04/26 13:42:51;;;;;;;8.52;2.58;;;14.50;99.90;;;;;;5058385;28;20472;-81
2022/04/26 13:45:18;;;;;;;7.70;2.45;;;14.30;99.90;;;;;;5087131;28;20101;-81
2022/04/26 13:47:45;;;;;;;8.30;2.58;;;14.20;99.90;;;;;;5087790;28;20032;-81
2022/04/26 13:50:12;;;;;;;7.95;2.70;;;13.80;99.90;;;;;;5071523;28;20097;-81
2022/04/26 13:52:38;;;;;;;9.20;2.60;;;13.40;99.90;;;;;;5071397;28;20039;-81
2022/04/26 13:55:04;;;;;;;10.32;3.03;;;13.70;99.90;;;;;;5047378;28;20470;-81
2022/04/26 13:57:30;;;;;;;9.73;3.10;;;13.70;99.90;;;;;;5088368;28;20119;-80
2022/04/26 13:59:56;;;;;;;9.68;3.30;;;13.90;99.90;;;;;;5072962;28;20459;-81
2022/04/26 14:02:21;;;;;;;9.52;2.83;;;13.70;99.90;;;;;;5065283;28;20128;-81
2022/04/26 14:04:50;;;;;;;8.18;2.92;;;13.60;99.90;;;;;;5048974;28;20052;-81
2022/04/26 14:07:17;;;;;;;8.13;2.88;;;13.50;99.90;;;;;;5065346;28;20044;-81
2022/04/26 14:09:43;;;;;;;8.68;2.60;;;13.40;99.90;;;;;;5070646;28;20040;-81
2022/04/26 14:12:09;;;;;;;10.13;2.85;;;13.70;99.90;;;;;;5068121;28;20032;-81
2022/04/26 14:22:51;;;;;;;8.88;3.00;;;14.10;99.90;;;;;;5076763;28;20124;-80
2022/04/26 14:25:16;;;;;;;10.07;2.88;;;14.20;99.90;;;;;;5053093;28;20565;-82
2022/04/26 14:27:45;;;;;;;10.70;3.08;;;14.20;99.90;;;;;;5078913;28;20459;-81
2022/04/26 14:30:12;;;;;;;10.13;3.10;;;14.10;99.90;;;;;;5060312;28;20044;-81
2022/04/26 14:32:38;;;;;;;8.45;2.78;;;14.10;99.90;;;;;;5076023;28;20512;-81
2022/04/26 14:35:05;;;;;;;9.85;2.78;;;14.10;99.90;;;;;;5047430;28;20036;-81
2022/04/26 14:37:33;;;;;;;8.93;3.00;;;13.80;99.90;;;;;;5074756;28;20040;-81
2022/04/26 14:39:59;;;;;;;8.82;2.70;;;13.80;99.90;;;;;;5057896;28;20117;-81
2022/04/26 14:42:24;;;;;;;9.93;3.05;;;13.80;99.90;;;;;;5057940;28;20039;-81
2022/04/26 14:44:50;;;;;;;8.75;2.78;;;14.10;99.90;;;;;;5068376;28;20117;-81
2022/04/26 14:47:16;;;;;;;9.48;2.90;;;13.90;99.90;;;;;;5053180;28;20040;-80
2022/04/26 14:49:41;;;;;;;12.52;3.20;;;13.80;99.90;;;;;;5052738;28;20099;-80
2022/04/26 14:52:08;;;;;;;9.23;2.70;;;14.00;99.90;;;;;;5055131;28;20046;-81
2022/04/26 14:54:34;;;;;;;9.00;2.78;;;13.70;99.90;;;;;;5090059;28;20132;-81
2022/04/26 14:57:01;;;;;;;8.00;2.88;;;13.50;99.90;;;;;;5074349;28;20075;-81
2022/04/26 14:59:26;;;;;;;10.00;2.95;;;13.50;99.90;;;;;;5080557;28;20105;-81
2022/04/26 15:01:53;;;;;;;11.25;3.00;;;13.70;99.90;;;;;;5073613;28;20044;-82
2022/04/26 15:04:20;;;;;;;12.85;2.83;;;13.90;99.90;;;;;;5060897;28;20491;-81
2022/04/26 15:06:47;;;;;;;10.50;2.75;;;14.20;99.90;;;;;;5090728;28;20055;-81
2022/04/26 15:17:27;;;;;;;10.27;2.92;;;13.90;99.90;;;;;;5071104;28;20113;-80
2022/04/26 15:19:54;;;;;;;11.50;3.05;;;13.80;99.90;;;;;;5088676;28;20043;-80
2022/04/26 15:22:20;;;;;;;10.65;2.90;;;13.60;99.90;;;;;;5070608;28;20476;-80
2022/04/26 15:24:46;;;;;;;8.80;2.58;;;13.70;99.90;;;;;;5042781;28;20120;-80
2022/04/26 15:27:14;;;;;;;10.15;2.92;;;13.50;99.90;;;;;;5057060;28;20038;-80
2022/04/26 15:29:39;;;;;;;12.15;2.83;;;13.50;99.90;;;;;;5064304;28;20036;-80
2022/04/26 15:32:06;;;;;;;8.15;2.90;;;14.10;99.90;;;;;;5079484;28;20389;-80
2022/04/26 15:34:32;;;;;;;10.15;2.63;;;14.70;99.90;;;;;;5090224;28;20115;-80
2022/04/26 15:36:57;;;;;;;10.40;2.60;;;13.90;99.90;;;;;;5073253;28;20122;-80
2022/04/26 15:39:25;;;;;;;9.32;2.70;;;13.90;99.90;;;;;;5069799;28;20121;-80
2022/04/26 15:41:51;;;;;;;9.27;2.85;;;14.00;99.90;;;;;;5088362;28;20050;-80
2022/04/26 15:44:17;;;;;;;9.35;2.60;;;15.30;99.90;;;;;;5080681;28;20115;-80
2022/04/26 15:46:43;;;;;;;8.98;2.58;;;17.10;98.90;;;;;;5070253;28;20040;-81
2022/04/26 15:49:12;;;;;;;9.27;2.63;;;16.80;94.10;;;;;;5029824;28;20072;-80
2022/04/26 15:51:41;;;;;;;9.20;2.90;;;16.40;94.70;;;;;;5073275;28;20263;-80
2022/04/26 15:54:07;;;;;;;9.30;2.60;;;15.80;94.70;;;;;;5088906;28;20044;-80
2022/04/26 15:56:33;;;;;;;9.45;2.90;;;15.30;96.50;;;;;;5069703;28;20083;-80
2022/04/26 15:59:00;;;;;;;10.43;2.70;;;14.70;98.50;;;;;;5062398;28;20509;-80
2022/04/26 16:01:26;;;;;;;7.90;2.40;;;14.50;99.90;;;;;;5055263;28;20072;-80
2022/04/26 16:03:52;;;;;;;10.18;2.67;;;14.90;99.50;;;;;;5065490;28;20064;-80
2022/04/26 16:06:19;;;;;;;8.48;2.42;;;14.70;99.90;;;;;;5049196;28;20045;-81
2022/04/26 16:08:44;;;;;;;9.90;2.75;;;14.90;98.30;;;;;;5063605;28;20408;-80
2022/04/26 16:22:07;;;;;;;8.77;2.60;;;13.90;99.50;;;;;;5074476;28;20052;-80
2022/04/26 16:24:38;;;;;;;10.23;2.70;;;13.80;99.90;;;;;;5037306;28;20043;-80
2022/04/26 16:27:05;;;;;;;7.25;2.40;;;13.70;99.90;;;;;;5069055;28;20102;-80
2022/04/26 16:29:31;;;;;;;8.52;2.60;;;13.30;99.60;;;;;;5068910;28;20618;-80
2022/04/26 16:31:57;;;;;;;8.88;2.58;;;13.10;99.90;;;;;;5077099;28;20503;-80
2022/04/26 16:34:23;;;;;;;7.63;2.80;;;13.00;99.90;;;;;;5079611;28;20036;-80
2022/04/26 16:36:50;;;;;;;8.48;2.35;;;13.00;99.90;;;;;;5051726;28;20041;-80
2022/04/26 16:39:16;;;;;;;8.23;2.60;;;12.80;99.90;;;;;;5055804;28;20065;-80
2022/04/26 16:41:41;;;;;;;9.85;2.45;;;12.90;99.90;;;;;;5052710;28;20041;-80
2022/04/26 16:44:07;;;;;;;9.57;2.78;;;13.00;99.90;;;;;;5048976;28;20051;-80
2022/04/26 16:46:35;;;;;;;7.85;2.50;;;13.00;99.90;;;;;;5068714;28;20419;-80
2022/04/26 16:49:04;;;;;;;9.00;3.17;;;12.80;99.90;;;;;;5048737;28;20389;-79
2022/04/26 16:51:32;;;;;;;7.95;2.50;;;12.80;99.90;;;;;;5058307;28;20123;-79
2022/04/26 16:53:58;;;;;;;9.50;2.42;;;12.80;99.90;;;;;;5063291;28;20119;-79
2022/04/26 16:56:27;;;;;;;9.30;2.60;;;13.20;99.90;;;;;;5053239;28;20089;-80
2022/04/26 16:58:53;;;;;;;12.32;2.80;;;13.00;99.90;;;;;;5060860;28;20044;-81
2022/04/26 17:01:18;;;;;;;7.22;2.30;;;12.70;99.90;;;;;;5042545;28;20040;-80
2022/04/26 17:03:44;;;;;;;8.32;2.20;;;12.60;99.90;;;;;;5055282;28;20105;-80
2022/04/26 17:06:10;;;;;;;12.73;2.90;;;;;;;;;;5082763;28;20094;-79
2022/04/26 17:08:36;;;;;;;7.03;2.38;;;12.40;99.90;;;;;;5060815;28;20032;-80
2022/04/26 17:13:46;;;;;;;9.70;2.45;;;12.70;99.90;;;;;;5059044;28;20040;-80